Avalon Express — WDD7919 — position and weather

sailwx.info

Track history (hours):
 
Tides and Currents Weather Stations Pressure Air Temp Water Temp Dewpoint Dewpoint Depression Visibility Wind Speed Wind Dir Waves Ship Positions

Avalon Express

Owner: RGWT INC, San Pedro, CA. More information available from US FCC via Universal Licensing System and Coast Guard Vessel Documentation Center.

Last reported at 2017-Aug-22 20:15 UTC. Time now 2017-Aug-23 19:19 UTC.
Position N 33°45' W 118°16'.

Type: High speed craft. MMSI: 367192940.

Date/timePositionNaut miles runAvg speedWind from/ knotsBaromVisibWave heightAir tempDewpointWater temp
2017-Aug-22 20:15N 33°45' W 118°16'0 0.2
2017-Aug-22 20:00N 33°45' W 118°16'0 0.2
2017-Aug-22 19:30N 33°45' W 118°16'1 1.0
2017-Aug-22 19:00N 33°44' W 118°17'918.9
2017-Aug-22 18:30N 33°35' W 118°16'1326.5
2017-Aug-22 18:01N 33°22' W 118°19'1 2.8
2017-Aug-22 17:30N 33°21' W 118°19'0 0.3
2017-Aug-22 17:00N 33°21' W 118°19'1224.2
2017-Aug-22 16:30N 33°32' W 118°17'1122.3
2017-Aug-22 16:00N 33°44' W 118°16'1 2.3
2017-Aug-22 15:30N 33°45' W 118°16'0 0.2
2017-Aug-22 15:00N 33°45' W 118°16'0 0.0
2017-Aug-22 14:25N 33°45' W 118°16'0 0.0
2017-Aug-22 13:55N 33°45' W 118°16'0 0.0
2017-Aug-22 13:22N 33°45' W 118°16'0 0.1
2017-Aug-22 13:00N 33°45' W 118°16'0 0.0
2017-Aug-22 02:53N 33°45' W 118°16'0 0.2
2017-Aug-22 02:30N 33°45' W 118°16'0 0.0
2017-Aug-22 02:00N 33°45' W 118°16'1 2.3
2017-Aug-22 01:30N 33°44' W 118°16'1923.5
2017-Aug-22 00:41N 33°25' W 118°19'4 5.2
2017-Aug-21 23:57N 33°21' W 118°19'1610.8
2017-Aug-21 22:30N 33°36' W 118°20'816.8
2017-Aug-21 22:00N 33°44' W 118°17'0 0.9
2017-Aug-21 21:30N 33°45' W 118°16'0 0.0
2017-Aug-21 20:58N 33°45' W 118°16'2 3.7
2017-Aug-21 20:30N 33°43' W 118°16'1725.8
2017-Aug-21 19:51N 33°26' W 118°18'9 6.0
2017-Aug-21 18:21N 33°35' W 118°16'822.8
2017-Aug-21 18:00N 33°43' W 118°16'2 3.1
2017-Aug-21 17:30N 33°45' W 118°16'0 0.0
2017-Aug-21 17:00N 33°45' W 118°16'0 0.2
2017-Aug-21 16:30N 33°45' W 118°16'0 0.1
2017-Aug-21 16:00N 33°45' W 118°16'0 0.1
2017-Aug-21 15:18N 33°45' W 118°16'0 0.0
2017-Aug-21 14:37N 33°45' W 118°16'0 0.0
2017-Aug-21 14:29N 33°45' W 118°16'0 0.0
2017-Aug-21 13:50N 33°45' W 118°16'0 0.0
2017-Aug-21 04:51N 33°45' W 118°16'0 0.2
2017-Aug-21 04:27N 33°45' W 118°16'2 3.3
2017-Aug-21 04:00N 33°43' W 118°16'7 3.2
2017-Aug-21 01:47N 33°36' W 118°16'724.7
2017-Aug-21 01:30N 33°43' W 118°16'2 3.0
2017-Aug-21 00:55N 33°45' W 118°16'0 0.0
2017-Aug-21 00:30N 33°45' W 118°16'0 0.0
2017-Aug-20 23:59N 33°45' W 118°16'0 0.0
2017-Aug-20 23:30N 33°45' W 118°16'0 0.0
2017-Aug-20 23:00N 33°45' W 118°16'0 0.0
2017-Aug-20 22:29N 33°45' W 118°16'1 1.3
2017-Aug-20 21:49N 33°44' W 118°16'616.6
2017-Aug-20 21:26N 33°38' W 118°19'1426.1
2017-Aug-20 20:54N 33°28' W 118°31'0 1.0
2017-Aug-20 20:27N 33°28' W 118°31'1 1.4
2017-Aug-20 19:58N 33°28' W 118°31'0 0.4
2017-Aug-20 19:26N 33°28' W 118°31'1 1.4
2017-Aug-20 19:00N 33°28' W 118°30'5 9.6
2017-Aug-20 18:30N 33°26' W 118°25'11 8.2
2017-Aug-20 17:06N 33°35' W 118°17'325.5
2017-Aug-20 17:00N 33°38' W 118°16'713.3
2017-Aug-20 16:27N 33°45' W 118°16'0 0.0
2017-Aug-20 15:58N 33°45' W 118°16'0 0.0
2017-Aug-20 13:40N 33°45' W 118°16'0 0.0
2017-Aug-20 13:17N 33°45' W 118°16'0 0.0
2017-Aug-19 21:45N 33°45' W 118°16'0 0.3
2017-Aug-19 21:30N 33°45' W 118°16'1 1.4
2017-Aug-19 21:00N 33°44' W 118°17'1021.2
2017-Aug-19 20:31N 33°34' W 118°16'1326.7
2017-Aug-19 20:00N 33°21' W 118°19'4 9.0
2017-Aug-19 19:31N 33°25' W 118°19'1326.1
2017-Aug-19 19:00N 33°38' W 118°16'713.0
2017-Aug-19 18:29N 33°45' W 118°16'0 0.0
2017-Aug-19 18:00N 33°45' W 118°16'0 0.0
2017-Aug-19 17:30N 33°45' W 118°16'816.8
2017-Aug-19 17:00N 33°37' W 118°15'1427.1
2017-Aug-19 16:30N 33°23' W 118°18'3 5.4
2017-Aug-19 16:01N 33°21' W 118°19'1224.5
2017-Aug-19 15:30N 33°33' W 118°17'1120.1
2017-Aug-19 14:57N 33°44' W 118°17'1 0.8
2017-Aug-19 13:59N 33°45' W 118°16'0 0.0
2017-Aug-19 13:30N 33°45' W 118°16'0 0.1
2017-Aug-19 13:00N 33°45' W 118°16'0 0.0
2017-Aug-19 12:30N 33°45' W 118°16'0 0.0
2017-Aug-18 22:06N 33°45' W 118°16'0 1.0
2017-Aug-18 22:00N 33°45' W 118°16'0 0.0
2017-Aug-18 21:30N 33°45' W 118°16'4 9.2
2017-Aug-18 21:00N 33°41' W 118°15'1427.1
2017-Aug-18 20:30N 33°27' W 118°18'713.4
2017-Aug-18 20:00N 33°21' W 118°19'4 7.0
2017-Aug-18 19:30N 33°24' W 118°19'1326.1
2017-Aug-18 19:00N 33°37' W 118°16'815.7
2017-Aug-18 18:30N 33°45' W 118°16'0 0.1
2017-Aug-18 18:00N 33°45' W 118°16'510.5
2017-Aug-18 17:31N 33°40' W 118°15'1427.3
2017-Aug-18 17:01N 33°27' W 118°17'612.1
2017-Aug-18 16:30N 33°21' W 118°19'611.3
2017-Aug-18 16:00N 33°26' W 118°18'1325.6
2017-Aug-18 15:31N 33°39' W 118°16'612.0
2017-Aug-18 15:00N 33°45' W 118°16'0 0.0
2017-Aug-18 14:30N 33°45' W 118°16'0 0.1
2017-Aug-18 13:30N 33°45' W 118°16'0 0.1
2017-Aug-18 13:00N 33°45' W 118°16'0 0.0
2017-Aug-18 12:30N 33°45' W 118°16'0 0.0
2017-Aug-18 12:00N 33°45' W 118°16'0 0.0
2017-Aug-17 22:17N 33°45' W 118°16'0 0.2
2017-Aug-17 22:00N 33°45' W 118°16'0 0.2
2017-Aug-17 21:30N 33°45' W 118°16'0 0.0
2017-Aug-17 21:01N 33°45' W 118°16'3 5.6
2017-Aug-17 20:31N 33°42' W 118°15'1326.6
2017-Aug-17 20:00N 33°29' W 118°19'714.9
2017-Aug-17 19:30N 33°22' W 118°21'1 2.8
2017-Aug-17 19:00N 33°21' W 118°20'0 0.0
2017-Aug-17 18:30N 33°21' W 118°20'0 0.0
2017-Aug-17 18:00N 33°21' W 118°20'1 0.9
2017-Aug-17 17:26N 33°21' W 118°19'1024.4
2017-Aug-17 17:00N 33°31' W 118°17'1224.0
2017-Aug-17 16:30N 33°43' W 118°16'2 4.1
2017-Aug-17 16:00N 33°45' W 118°16'0 0.0
2017-Aug-17 15:30N 33°45' W 118°16'0 0.2
2017-Aug-17 15:00N 33°45' W 118°16'0 0.0
2017-Aug-17 14:30N 33°45' W 118°16'0 0.0
2017-Aug-17 14:00N 33°45' W 118°16'0 0.0
2017-Aug-16 20:36N 33°45' W 118°16'0 0.0
2017-Aug-16 20:30N 33°45' W 118°16'0 0.1
2017-Aug-16 20:00N 33°45' W 118°16'0 0.1
2017-Aug-16 19:28N 33°45' W 118°16'1 1.5
2017-Aug-16 19:00N 33°44' W 118°17'1019.8
2017-Aug-16 18:30N 33°34' W 118°16'1421.0
2017-Aug-16 17:50N 33°21' W 118°19'1 2.8
2017-Aug-16 17:24N 33°22' W 118°19'1127.0
2017-Aug-16 17:00N 33°32' W 118°17'1121.1
2017-Aug-16 16:28N 33°44' W 118°16'1 2.7
2017-Aug-16 16:00N 33°45' W 118°16'0 0.2
2017-Aug-16 15:28N 33°45' W 118°16'0 0.0
2017-Aug-16 14:59N 33°45' W 118°16'0 0.0
2017-Aug-16 14:31N 33°45' W 118°16'0 0.0
2017-Aug-16 14:01N 33°45' W 118°16'0 0.1
2017-Aug-16 13:28N 33°45' W 118°16'0 0.1
2017-Aug-16 13:00N 33°45' W 118°16'0 0.0
2017-Aug-16 12:24N 33°45' W 118°16'0 0.0
2017-Aug-15 20:05N 33°45' W 118°16'0 0.5
2017-Aug-15 20:00N 33°45' W 118°16'0 0.2
2017-Aug-15 19:30N 33°45' W 118°16'1 1.3
2017-Aug-15 19:00N 33°44' W 118°17'1120.8
2017-Aug-15 18:28N 33°33' W 118°17'1226.1
2017-Aug-15 17:59N 33°21' W 118°19'0 0.2
2017-Aug-15 17:28N 33°21' W 118°19'1424.5
2017-Aug-15 16:52N 33°35' W 118°17'921.5
2017-Aug-15 16:28N 33°44' W 118°16'1 2.5
2017-Aug-15 15:57N 33°45' W 118°16'0 0.1
2017-Aug-15 15:20N 33°45' W 118°16'0 0.0
2017-Aug-15 14:21N 33°45' W 118°16'0 0.0
2017-Aug-15 13:55N 33°45' W 118°16'0 0.0
2017-Aug-15 13:28N 33°45' W 118°16'0 0.0
2017-Aug-14 05:51N 33°45' W 118°16'0 0.3
2017-Aug-14 05:30N 33°45' W 118°16'0 0.0
2017-Aug-14 04:59N 33°45' W 118°16'0 0.0
2017-Aug-14 04:30N 33°45' W 118°16'1 3.0
2017-Aug-14 04:00N 33°43' W 118°16'1223.5
2017-Aug-14 03:29N 33°31' W 118°17'1022.4
2017-Aug-14 03:00N 33°21' W 118°19'1 1.1
2017-Aug-14 02:30N 33°21' W 118°19'1326.2
2017-Aug-14 02:01N 33°34' W 118°17'1019.3
2017-Aug-14 01:30N 33°44' W 118°16'1 2.3
2017-Aug-14 01:00N 33°45' W 118°16'1 2.2
2017-Aug-14 00:30N 33°44' W 118°16'1020.3
2017-Aug-14 00:01N 33°35' W 118°21'10 9.7
2017-Aug-13 22:56N 33°27' W 118°30'1125.7
2017-Aug-13 22:30N 33°35' W 118°21'919.0
2017-Aug-13 22:00N 33°44' W 118°17'1 1.8
2017-Aug-13 21:31N 33°45' W 118°16'0 0.0
2017-Aug-13 21:00N 33°45' W 118°16'2 3.0
2017-Aug-13 20:31N 33°43' W 118°16'1223.7
2017-Aug-13 20:00N 33°31' W 118°18'1018.4
2017-Aug-13 19:29N 33°22' W 118°21'0 0.5
2017-Aug-13 19:00N 33°22' W 118°21'0 0.6
2017-Aug-13 18:30N 33°22' W 118°20'1 2.1
2017-Aug-13 17:59N 33°21' W 118°19'2 5.1
2017-Aug-13 17:30N 33°24' W 118°19'1326.6
2017-Aug-13 17:01N 33°37' W 118°16'816.1
2017-Aug-13 16:30N 33°45' W 118°16'0 0.2
2017-Aug-13 15:58N 33°45' W 118°16'0 0.2
2017-Aug-13 15:30N 33°45' W 118°16'0 0.0
2017-Aug-13 15:00N 33°45' W 118°16'0 0.0
2017-Aug-13 14:30N 33°45' W 118°16'0 0.0
2017-Aug-13 14:00N 33°45' W 118°16'0 0.1
2017-Aug-13 13:30N 33°45' W 118°16'0 0.0
2017-Aug-13 08:39N 33°45' W 118°16'0 0.9
2017-Aug-13 08:30N 33°45' W 118°16'0 0.1
2017-Aug-13 08:00N 33°45' W 118°16'0 0.0
2017-Aug-13 07:30N 33°45' W 118°16'1 3.0
2017-Aug-13 07:00N 33°43' W 118°16'1223.1
2017-Aug-13 06:29N 33°31' W 118°17'1122.7
2017-Aug-13 06:00N 33°21' W 118°19'5 9.6
2017-Aug-13 05:31N 33°25' W 118°19'1427.4
2017-Aug-13 05:01N 33°39' W 118°16'612.1
2017-Aug-13 04:30N 33°45' W 118°16'2 4.2
2017-Aug-13 04:01N 33°43' W 118°16'1224.7
2017-Aug-13 03:30N 33°31' W 118°17'1013.4
2017-Aug-13 02:45N 33°21' W 118°19'1 6.0
2017-Aug-13 02:30N 33°22' W 118°20'910.4
2017-Aug-13 01:36N 33°27' W 118°30'113.9
2017-Aug-13 01:30N 33°28' W 118°29'1326.7
2017-Aug-13 01:00N 33°38' W 118°19'713.9
2017-Aug-13 00:30N 33°45' W 118°16'0 0.0
2017-Aug-13 00:00N 33°45' W 118°16'0 0.0
2017-Aug-12 23:30N 33°45' W 118°16'0 0.0
2017-Aug-12 23:00N 33°45' W 118°16'0 0.0
2017-Aug-12 22:30N 33°45' W 118°16'0 0.0
2017-Aug-12 22:00N 33°45' W 118°16'0 0.3
2017-Aug-12 21:30N 33°45' W 118°16'918.5
2017-Aug-12 21:00N 33°35' W 118°16'1326.9
2017-Aug-12 20:30N 33°22' W 118°19'  
Track history (hours):
 
Tides and Currents Weather Stations Pressure Air Temp Water Temp Dewpoint Dewpoint Depression Visibility Wind Speed Wind Dir Waves Ship Positions

Avalon Express

Owner: RGWT INC, San Pedro, CA. More information available from US FCC via Universal Licensing System and Coast Guard Vessel Documentation Center.

Last reported at 2017-Aug-22 20:15 UTC. Time now 2017-Aug-23 19:19 UTC.
Position N 33°45' W 118°16'.

Type: High speed craft. MMSI: 367192940.

Date/timePositionNaut miles runAvg speedWind from/ knotsBaromVisibWave heightAir tempDewpointWater temp
2017-Aug-22 20:15N 33°45' W 118°16'0 0.2
2017-Aug-22 20:00N 33°45' W 118°16'0 0.2
2017-Aug-22 19:30N 33°45' W 118°16'1 1.0
2017-Aug-22 19:00N 33°44' W 118°17'918.9
2017-Aug-22 18:30N 33°35' W 118°16'1326.5
2017-Aug-22 18:01N 33°22' W 118°19'1 2.8
2017-Aug-22 17:30N 33°21' W 118°19'0 0.3
2017-Aug-22 17:00N 33°21' W 118°19'1224.2
2017-Aug-22 16:30N 33°32' W 118°17'1122.3
2017-Aug-22 16:00N 33°44' W 118°16'1 2.3
2017-Aug-22 15:30N 33°45' W 118°16'0 0.2
2017-Aug-22 15:00N 33°45' W 118°16'0 0.0
2017-Aug-22 14:25N 33°45' W 118°16'0 0.0
2017-Aug-22 13:55N 33°45' W 118°16'0 0.0
2017-Aug-22 13:22N 33°45' W 118°16'0 0.1
2017-Aug-22 13:00N 33°45' W 118°16'0 0.0
2017-Aug-22 02:53N 33°45' W 118°16'0 0.2
2017-Aug-22 02:30N 33°45' W 118°16'0 0.0
2017-Aug-22 02:00N 33°45' W 118°16'1 2.3
2017-Aug-22 01:30N 33°44' W 118°16'1923.5
2017-Aug-22 00:41N 33°25' W 118°19'4 5.2
2017-Aug-21 23:57N 33°21' W 118°19'1610.8
2017-Aug-21 22:30N 33°36' W 118°20'816.8
2017-Aug-21 22:00N 33°44' W 118°17'0 0.9
2017-Aug-21 21:30N 33°45' W 118°16'0 0.0
2017-Aug-21 20:58N 33°45' W 118°16'2 3.7
2017-Aug-21 20:30N 33°43' W 118°16'1725.8
2017-Aug-21 19:51N 33°26' W 118°18'9 6.0
2017-Aug-21 18:21N 33°35' W 118°16'822.8
2017-Aug-21 18:00N 33°43' W 118°16'2 3.1
2017-Aug-21 17:30N 33°45' W 118°16'0 0.0
2017-Aug-21 17:00N 33°45' W 118°16'0 0.2
2017-Aug-21 16:30N 33°45' W 118°16'0 0.1
2017-Aug-21 16:00N 33°45' W 118°16'0 0.1
2017-Aug-21 15:18N 33°45' W 118°16'0 0.0
2017-Aug-21 14:37N 33°45' W 118°16'0 0.0
2017-Aug-21 14:29N 33°45' W 118°16'0 0.0
2017-Aug-21 13:50N 33°45' W 118°16'0 0.0
2017-Aug-21 04:51N 33°45' W 118°16'0 0.2
2017-Aug-21 04:27N 33°45' W 118°16'2 3.3
2017-Aug-21 04:00N 33°43' W 118°16'7 3.2
2017-Aug-21 01:47N 33°36' W 118°16'724.7
2017-Aug-21 01:30N 33°43' W 118°16'2 3.0
2017-Aug-21 00:55N 33°45' W 118°16'0 0.0
2017-Aug-21 00:30N 33°45' W 118°16'0 0.0
2017-Aug-20 23:59N 33°45' W 118°16'0 0.0
2017-Aug-20 23:30N 33°45' W 118°16'0 0.0
2017-Aug-20 23:00N 33°45' W 118°16'0 0.0
2017-Aug-20 22:29N 33°45' W 118°16'1 1.3
2017-Aug-20 21:49N 33°44' W 118°16'616.6
2017-Aug-20 21:26N 33°38' W 118°19'1426.1
2017-Aug-20 20:54N 33°28' W 118°31'0 1.0
2017-Aug-20 20:27N 33°28' W 118°31'1 1.4
2017-Aug-20 19:58N 33°28' W 118°31'0 0.4
2017-Aug-20 19:26N 33°28' W 118°31'1 1.4
2017-Aug-20 19:00N 33°28' W 118°30'5 9.6
2017-Aug-20 18:30N 33°26' W 118°25'11 8.2
2017-Aug-20 17:06N 33°35' W 118°17'325.5
2017-Aug-20 17:00N 33°38' W 118°16'713.3
2017-Aug-20 16:27N 33°45' W 118°16'0 0.0
2017-Aug-20 15:58N 33°45' W 118°16'0 0.0
2017-Aug-20 13:40N 33°45' W 118°16'0 0.0
2017-Aug-20 13:17N 33°45' W 118°16'0 0.0
2017-Aug-19 21:45N 33°45' W 118°16'0 0.3
2017-Aug-19 21:30N 33°45' W 118°16'1 1.4
2017-Aug-19 21:00N 33°44' W 118°17'1021.2
2017-Aug-19 20:31N 33°34' W 118°16'1326.7
2017-Aug-19 20:00N 33°21' W 118°19'4 9.0
2017-Aug-19 19:31N 33°25' W 118°19'1326.1
2017-Aug-19 19:00N 33°38' W 118°16'713.0
2017-Aug-19 18:29N 33°45' W 118°16'0 0.0
2017-Aug-19 18:00N 33°45' W 118°16'0 0.0
2017-Aug-19 17:30N 33°45' W 118°16'816.8
2017-Aug-19 17:00N 33°37' W 118°15'1427.1
2017-Aug-19 16:30N 33°23' W 118°18'3 5.4
2017-Aug-19 16:01N 33°21' W 118°19'1224.5
2017-Aug-19 15:30N 33°33' W 118°17'1120.1
2017-Aug-19 14:57N 33°44' W 118°17'1 0.8
2017-Aug-19 13:59N 33°45' W 118°16'0 0.0
2017-Aug-19 13:30N 33°45' W 118°16'0 0.1
2017-Aug-19 13:00N 33°45' W 118°16'0 0.0
2017-Aug-19 12:30N 33°45' W 118°16'0 0.0
2017-Aug-18 22:06N 33°45' W 118°16'0 1.0
2017-Aug-18 22:00N 33°45' W 118°16'0 0.0
2017-Aug-18 21:30N 33°45' W 118°16'4 9.2
2017-Aug-18 21:00N 33°41' W 118°15'1427.1
2017-Aug-18 20:30N 33°27' W 118°18'713.4
2017-Aug-18 20:00N 33°21' W 118°19'4 7.0
2017-Aug-18 19:30N 33°24' W 118°19'1326.1
2017-Aug-18 19:00N 33°37' W 118°16'815.7
2017-Aug-18 18:30N 33°45' W 118°16'0 0.1
2017-Aug-18 18:00N 33°45' W 118°16'510.5
2017-Aug-18 17:31N 33°40' W 118°15'1427.3
2017-Aug-18 17:01N 33°27' W 118°17'612.1
2017-Aug-18 16:30N 33°21' W 118°19'611.3
2017-Aug-18 16:00N 33°26' W 118°18'1325.6
2017-Aug-18 15:31N 33°39' W 118°16'612.0
2017-Aug-18 15:00N 33°45' W 118°16'0 0.0
2017-Aug-18 14:30N 33°45' W 118°16'0 0.1
2017-Aug-18 13:30N 33°45' W 118°16'0 0.1
2017-Aug-18 13:00N 33°45' W 118°16'0 0.0
2017-Aug-18 12:30N 33°45' W 118°16'0 0.0
2017-Aug-18 12:00N 33°45' W 118°16'0 0.0
2017-Aug-17 22:17N 33°45' W 118°16'0 0.2
2017-Aug-17 22:00N 33°45' W 118°16'0 0.2
2017-Aug-17 21:30N 33°45' W 118°16'0 0.0
2017-Aug-17 21:01N 33°45' W 118°16'3 5.6
2017-Aug-17 20:31N 33°42' W 118°15'1326.6
2017-Aug-17 20:00N 33°29' W 118°19'714.9
2017-Aug-17 19:30N 33°22' W 118°21'1 2.8
2017-Aug-17 19:00N 33°21' W 118°20'0 0.0
2017-Aug-17 18:30N 33°21' W 118°20'0 0.0
2017-Aug-17 18:00N 33°21' W 118°20'1 0.9
2017-Aug-17 17:26N 33°21' W 118°19'1024.4
2017-Aug-17 17:00N 33°31' W 118°17'1224.0
2017-Aug-17 16:30N 33°43' W 118°16'2 4.1
2017-Aug-17 16:00N 33°45' W 118°16'0 0.0
2017-Aug-17 15:30N 33°45' W 118°16'0 0.2
2017-Aug-17 15:00N 33°45' W 118°16'0 0.0
2017-Aug-17 14:30N 33°45' W 118°16'0 0.0
2017-Aug-17 14:00N 33°45' W 118°16'0 0.0
2017-Aug-16 20:36N 33°45' W 118°16'0 0.0
2017-Aug-16 20:30N 33°45' W 118°16'0 0.1
2017-Aug-16 20:00N 33°45' W 118°16'0 0.1
2017-Aug-16 19:28N 33°45' W 118°16'1 1.5
2017-Aug-16 19:00N 33°44' W 118°17'1019.8
2017-Aug-16 18:30N 33°34' W 118°16'1421.0
2017-Aug-16 17:50N 33°21' W 118°19'1 2.8
2017-Aug-16 17:24N 33°22' W 118°19'1127.0
2017-Aug-16 17:00N 33°32' W 118°17'1121.1
2017-Aug-16 16:28N 33°44' W 118°16'1 2.7
2017-Aug-16 16:00N 33°45' W 118°16'0 0.2
2017-Aug-16 15:28N 33°45' W 118°16'0 0.0
2017-Aug-16 14:59N 33°45' W 118°16'0 0.0
2017-Aug-16 14:31N 33°45' W 118°16'0 0.0
2017-Aug-16 14:01N 33°45' W 118°16'0 0.1
2017-Aug-16 13:28N 33°45' W 118°16'0 0.1
2017-Aug-16 13:00N 33°45' W 118°16'0 0.0
2017-Aug-16 12:24N 33°45' W 118°16'0 0.0
2017-Aug-15 20:05N 33°45' W 118°16'0 0.5
2017-Aug-15 20:00N 33°45' W 118°16'0 0.2
2017-Aug-15 19:30N 33°45' W 118°16'1 1.3
2017-Aug-15 19:00N 33°44' W 118°17'1120.8
2017-Aug-15 18:28N 33°33' W 118°17'1226.1
2017-Aug-15 17:59N 33°21' W 118°19'0 0.2
2017-Aug-15 17:28N 33°21' W 118°19'1424.5
2017-Aug-15 16:52N 33°35' W 118°17'921.5
2017-Aug-15 16:28N 33°44' W 118°16'1 2.5
2017-Aug-15 15:57N 33°45' W 118°16'0 0.1
2017-Aug-15 15:20N 33°45' W 118°16'0 0.0
2017-Aug-15 14:21N 33°45' W 118°16'0 0.0
2017-Aug-15 13:55N 33°45' W 118°16'0 0.0
2017-Aug-15 13:28N 33°45' W 118°16'0 0.0
2017-Aug-14 05:51N 33°45' W 118°16'0 0.3
2017-Aug-14 05:30N 33°45' W 118°16'0 0.0
2017-Aug-14 04:59N 33°45' W 118°16'0 0.0
2017-Aug-14 04:30N 33°45' W 118°16'1 3.0
2017-Aug-14 04:00N 33°43' W 118°16'1223.5
2017-Aug-14 03:29N 33°31' W 118°17'1022.4
2017-Aug-14 03:00N 33°21' W 118°19'1 1.1
2017-Aug-14 02:30N 33°21' W 118°19'1326.2
2017-Aug-14 02:01N 33°34' W 118°17'1019.3
2017-Aug-14 01:30N 33°44' W 118°16'1 2.3
2017-Aug-14 01:00N 33°45' W 118°16'1 2.2
2017-Aug-14 00:30N 33°44' W 118°16'1020.3
2017-Aug-14 00:01N 33°35' W 118°21'10 9.7
2017-Aug-13 22:56N 33°27' W 118°30'1125.7
2017-Aug-13 22:30N 33°35' W 118°21'919.0
2017-Aug-13 22:00N 33°44' W 118°17'1 1.8
2017-Aug-13 21:31N 33°45' W 118°16'0 0.0
2017-Aug-13 21:00N 33°45' W 118°16'2 3.0
2017-Aug-13 20:31N 33°43' W 118°16'1223.7
2017-Aug-13 20:00N 33°31' W 118°18'1018.4
2017-Aug-13 19:29N 33°22' W 118°21'0 0.5
2017-Aug-13 19:00N 33°22' W 118°21'0 0.6
2017-Aug-13 18:30N 33°22' W 118°20'1 2.1
2017-Aug-13 17:59N 33°21' W 118°19'2 5.1
2017-Aug-13 17:30N 33°24' W 118°19'1326.6
2017-Aug-13 17:01N 33°37' W 118°16'816.1
2017-Aug-13 16:30N 33°45' W 118°16'0 0.2
2017-Aug-13 15:58N 33°45' W 118°16'0 0.2
2017-Aug-13 15:30N 33°45' W 118°16'0 0.0
2017-Aug-13 15:00N 33°45' W 118°16'0 0.0
2017-Aug-13 14:30N 33°45' W 118°16'0 0.0
2017-Aug-13 14:00N 33°45' W 118°16'0 0.1
2017-Aug-13 13:30N 33°45' W 118°16'0 0.0
2017-Aug-13 08:39N 33°45' W 118°16'0 0.9
2017-Aug-13 08:30N 33°45' W 118°16'0 0.1
2017-Aug-13 08:00N 33°45' W 118°16'0 0.0
2017-Aug-13 07:30N 33°45' W 118°16'1 3.0
2017-Aug-13 07:00N 33°43' W 118°16'1223.1
2017-Aug-13 06:29N 33°31' W 118°17'1122.7
2017-Aug-13 06:00N 33°21' W 118°19'5 9.6
2017-Aug-13 05:31N 33°25' W 118°19'1427.4
2017-Aug-13 05:01N 33°39' W 118°16'612.1
2017-Aug-13 04:30N 33°45' W 118°16'2 4.2
2017-Aug-13 04:01N 33°43' W 118°16'1224.7
2017-Aug-13 03:30N 33°31' W 118°17'1013.4
2017-Aug-13 02:45N 33°21' W 118°19'1 6.0
2017-Aug-13 02:30N 33°22' W 118°20'910.4
2017-Aug-13 01:36N 33°27' W 118°30'113.9
2017-Aug-13 01:30N 33°28' W 118°29'1326.7
2017-Aug-13 01:00N 33°38' W 118°19'713.9
2017-Aug-13 00:30N 33°45' W 118°16'0 0.0
2017-Aug-13 00:00N 33°45' W 118°16'0 0.0
2017-Aug-12 23:30N 33°45' W 118°16'0 0.0
2017-Aug-12 23:00N 33°45' W 118°16'0 0.0
2017-Aug-12 22:30N 33°45' W 118°16'0 0.0
2017-Aug-12 22:00N 33°45' W 118°16'0 0.3
2017-Aug-12 21:30N 33°45' W 118°16'918.5
2017-Aug-12 21:00N 33°35' W 118°16'1326.9
2017-Aug-12 20:30N 33°22' W 118°19'  

Dump ship's entire track history